createdAt,value
2019-04-26T00:00:35.176Z,73.40
2019-04-26T00:03:08.882Z,73.70
2019-04-26T00:05:38.164Z,73.90
2019-04-26T00:08:07.976Z,74.10
2019-04-26T00:10:40.762Z,74.20
2019-04-26T00:13:12.370Z,74.20
2019-04-26T00:15:43.015Z,74.30
2019-04-26T00:18:12.814Z,74.40
2019-04-26T00:20:41.571Z,74.40
2019-04-26T00:23:10.805Z,74.30
2019-04-26T00:25:39.761Z,74.40
2019-04-26T00:28:08.371Z,74.50
2019-04-26T00:30:36.908Z,74.60
2019-04-26T00:33:05.411Z,74.80
2019-04-26T00:35:46.615Z,74.90
2019-04-26T00:38:04.476Z,75.00
2019-04-26T00:40:33.117Z,75.20
2019-04-26T00:43:02.904Z,75.30
2019-04-26T00:45:34.500Z,75.50
2019-04-26T00:48:03.830Z,75.70
2019-04-26T00:50:33.804Z,75.80
2019-04-26T00:53:04.252Z,75.90
2019-04-26T00:55:34.165Z,76.00
2019-04-26T00:58:03.472Z,76.20
2019-04-26T01:00:32.124Z,76.20
2019-04-26T01:03:00.777Z,76.50
2019-04-26T01:05:30.990Z,76.50
2019-04-26T01:07:59.667Z,76.80
2019-04-26T01:10:28.136Z,76.80
2019-04-26T01:12:56.661Z,76.70
2019-04-26T01:15:25.271Z,77.00
2019-04-26T01:17:53.744Z,76.80
2019-04-26T01:20:27.777Z,76.90
2019-04-26T01:22:59.422Z,77.90
2019-04-26T01:25:38.112Z,76.90
2019-04-26T01:28:09.615Z,76.90
2019-04-26T01:30:40.098Z,77.00
2019-04-26T01:33:10.307Z,78.10
2019-04-26T01:35:39.317Z,77.10
2019-04-26T01:38:10.931Z,77.20
2019-04-26T01:40:42.886Z,77.30
2019-04-26T01:43:13.122Z,77.40
2019-04-26T01:45:51.272Z,77.60
2019-04-26T01:48:44.167Z,77.70
2019-04-26T01:51:22.693Z,77.80
2019-04-26T01:53:52.639Z,78.00
2019-04-26T01:56:25.209Z,77.90
2019-04-26T01:58:54.314Z,77.90
2019-04-26T02:01:25.379Z,78.00
2019-04-26T02:03:54.265Z,78.10
2019-04-26T02:06:29.074Z,78.20
2019-04-26T02:08:54.587Z,78.50
2019-04-26T02:11:24.981Z,78.60
2019-04-26T02:13:54.129Z,78.70
2019-04-26T02:16:23.628Z,79.00
2019-04-26T02:18:52.467Z,79.10
2019-04-26T02:21:26.356Z,79.30
2019-04-26T02:24:09.500Z,79.30
2019-04-26T02:26:41.342Z,79.50
2019-04-26T02:29:21.979Z,79.80
2019-04-26T02:31:56.987Z,79.90
2019-04-26T02:34:29.221Z,80.00
2019-04-26T02:36:59.649Z,80.30
2019-04-26T02:39:37.726Z,80.40
2019-04-26T02:42:15.297Z,80.50
2019-04-26T02:45:00.691Z,80.60
2019-04-26T02:47:38.910Z,80.80
2019-04-26T02:50:11.802Z,80.90
2019-04-26T02:52:43.388Z,81.20
2019-04-26T02:55:48.458Z,81.40
2019-04-26T02:58:19.985Z,81.50
2019-04-26T03:00:49.989Z,82.50
2019-04-26T03:03:20.606Z,81.70
2019-04-26T03:05:51.313Z,81.80
2019-04-26T03:08:23.064Z,81.80
2019-04-26T03:10:54.709Z,81.80
2019-04-26T03:13:28.123Z,82.50
2019-04-26T03:15:59.989Z,81.70
2019-04-26T03:18:35.172Z,81.80
2019-04-26T03:21:32.693Z,81.80
2019-04-26T03:24:10.801Z,81.80
2019-04-26T03:27:00.678Z,82.00
2019-04-26T03:29:36.990Z,82.10
2019-04-26T03:32:16.122Z,82.10
2019-04-26T03:34:56.093Z,81.90
2019-04-26T03:37:39.851Z,81.80
2019-04-26T03:40:49.625Z,81.60
2019-04-26T03:43:21.306Z,81.40
2019-04-26T03:45:55.443Z,81.20
2019-04-26T03:48:57.461Z,81.20
2019-04-26T03:51:39.683Z,81.00
2019-04-26T03:54:14.299Z,80.80
2019-04-26T03:56:47.561Z,80.70
2019-04-26T03:59:23.544Z,80.40
2019-04-26T04:01:56.728Z,80.10
2019-04-26T04:04:39.615Z,79.80
2019-04-26T04:07:11.899Z,79.50
2019-04-26T04:09:44.847Z,79.30
2019-04-26T04:12:38.355Z,79.10
2019-04-26T04:15:10.918Z,78.90
2019-04-26T04:17:48.260Z,78.60
2019-04-26T04:20:43.103Z,78.40
2019-04-26T04:23:24.398Z,77.90
2019-04-26T04:25:55.579Z,77.50
2019-04-26T04:28:36.334Z,77.00
2019-04-26T04:31:16.769Z,76.80
2019-04-26T04:34:03.467Z,76.50
2019-04-26T04:36:35.149Z,75.90
2019-04-26T04:39:13.446Z,75.70
2019-04-26T04:42:12.301Z,75.40
2019-04-26T04:45:03.605Z,74.90
2019-04-26T04:47:36.921Z,74.80
2019-04-26T04:50:15.972Z,74.60
2019-04-26T04:52:53.589Z,74.00
2019-04-26T04:55:42.794Z,73.60
2019-04-26T04:58:22.658Z,73.20
2019-04-26T05:01:26.220Z,72.50
2019-04-26T05:04:19.932Z,71.40
2019-04-26T05:07:23.188Z,71.70
2019-04-26T05:10:09.937Z,71.30
2019-04-26T05:12:47.918Z,70.60
2019-04-26T05:15:44.642Z,70.40
2019-04-26T05:18:48.533Z,70.10
2019-04-26T05:21:20.263Z,69.20
2019-04-26T05:24:21.484Z,68.80
2019-04-26T05:27:00.332Z,68.10
2019-04-26T05:29:46.579Z,67.60
2019-04-26T05:32:52.655Z,67.00
2019-04-26T05:35:47.374Z,66.60
2019-04-26T05:38:37.021Z,66.00
2019-04-26T05:41:32.563Z,65.90
2019-04-26T05:44:26.801Z,65.40
2019-04-26T05:47:14.701Z,65.60
2019-04-26T05:50:31.983Z,65.40
2019-04-26T05:53:17.081Z,65.20
2019-04-26T05:56:12.639Z,64.60
2019-04-26T05:58:53.058Z,63.80
2019-04-26T06:01:45.626Z,63.90
2019-04-26T06:04:24.417Z,63.60
2019-04-26T06:07:21.155Z,63.00
2019-04-26T06:10:19.676Z,63.50
2019-04-26T06:13:02.908Z,62.20
2019-04-26T06:16:07.504Z,61.20
2019-04-26T06:18:43.418Z,61.50
2019-04-26T06:21:15.036Z,60.60
2019-04-26T06:24:02.128Z,60.60
2019-04-26T06:27:13.019Z,60.20
2019-04-26T06:29:43.003Z,60.00
2019-04-26T06:32:38.861Z,59.00
2019-04-26T06:35:19.996Z,57.90
2019-04-26T06:38:21.338Z,57.00
2019-04-26T06:41:21.408Z,56.80
2019-04-26T06:44:06.035Z,55.40
2019-04-26T06:46:47.412Z,55.20
2019-04-26T06:49:28.991Z,54.80
2019-04-26T06:52:12.640Z,54.80
2019-04-26T06:54:44.822Z,54.00
2019-04-26T06:57:33.176Z,53.30
2019-04-26T07:00:21.444Z,52.90
2019-04-26T07:03:02.132Z,52.00
2019-04-26T07:05:42.512Z,51.70
2019-04-26T07:08:39.786Z,51.20
2019-04-26T07:11:30.728Z,50.00
2019-04-26T07:14:11.534Z,49.60
2019-04-26T07:16:45.974Z,48.90
2019-04-26T07:19:58.486Z,47.80
2019-04-26T07:22:43.068Z,47.70
2019-04-26T07:25:34.099Z,46.50
2019-04-26T07:28:08.117Z,46.50
2019-04-26T07:30:48.842Z,43.60
2019-04-26T07:33:39.329Z,43.70
2019-04-26T07:36:42.465Z,40.50
2019-04-26T07:39:21.664Z,37.90
2019-04-26T07:42:32.828Z,36.20
2019-04-26T07:45:33.067Z,35.40
2019-04-26T07:48:36.663Z,33.80
2019-04-26T07:51:25.012Z,31.50
2019-04-26T07:54:13.153Z,29.50
2019-04-26T07:57:03.214Z,27.50
2019-04-26T08:00:04.333Z,27.00
2019-04-26T08:02:55.830Z,27.10
2019-04-26T08:05:29.120Z,26.10
2019-04-26T08:08:04.221Z,25.60
2019-04-26T08:10:36.162Z,25.50
2019-04-26T08:13:13.535Z,25.30
2019-04-26T08:16:04.909Z,24.70
2019-04-26T08:18:37.724Z,24.80
2019-04-26T08:21:16.934Z,23.60
2019-04-26T08:23:56.531Z,23.00
2019-04-26T08:26:27.020Z,22.80
2019-04-26T08:29:00.666Z,23.00
2019-04-26T08:31:31.930Z,22.80
2019-04-26T08:34:06.035Z,22.20
2019-04-26T08:36:39.592Z,22.10
2019-04-26T08:39:18.033Z,22.30
2019-04-26T08:41:49.087Z,21.80
2019-04-26T08:44:22.035Z,21.90
2019-04-26T08:46:56.929Z,23.00
2019-04-26T08:49:26.857Z,23.40
2019-04-26T08:51:59.024Z,23.50
2019-04-26T08:54:32.639Z,23.40
2019-04-26T08:57:07.848Z,23.20
2019-04-26T08:59:48.407Z,22.70
2019-04-26T09:02:21.639Z,22.50
2019-04-26T09:05:12.415Z,22.80
2019-04-26T09:07:44.079Z,23.10
2019-04-26T09:10:16.027Z,22.20
2019-04-26T09:12:47.715Z,21.50
2019-04-26T09:15:19.365Z,21.00
2019-04-26T09:17:47.895Z,20.90
2019-04-26T09:20:28.230Z,20.70
2019-04-26T09:22:50.981Z,20.70
2019-04-26T09:25:30.231Z,20.80
2019-04-26T09:28:13.704Z,20.90
2019-04-26T09:30:55.991Z,20.60
2019-04-26T09:33:31.695Z,20.60
2019-04-26T09:35:59.324Z,20.80
2019-04-26T09:38:27.893Z,21.10
2019-04-26T09:40:57.330Z,21.20
2019-04-26T09:43:39.546Z,20.70
2019-04-26T09:46:15.268Z,20.60
2019-04-26T09:48:51.291Z,21.40
2019-04-26T09:51:19.824Z,20.80
2019-04-26T09:53:48.362Z,20.50
2019-04-26T09:56:16.883Z,20.10
2019-04-26T09:58:45.439Z,20.40
2019-04-26T10:01:14.120Z,20.10
2019-04-26T10:03:42.687Z,19.70
2019-04-26T10:06:11.523Z,19.20
2019-04-26T10:08:43.349Z,19.20
2019-04-26T10:11:12.003Z,19.20
2019-04-26T10:13:42.151Z,19.50
2019-04-26T10:16:18.379Z,19.70
2019-04-26T10:18:48.591Z,19.60
2019-04-26T10:21:17.207Z,20.30
2019-04-26T10:23:46.333Z,20.20
2019-04-26T10:26:14.983Z,19.50
2019-04-26T10:28:46.739Z,19.70
2019-04-26T10:31:17.271Z,19.40
2019-04-26T10:33:44.109Z,19.80
2019-04-26T10:36:12.677Z,19.30
2019-04-26T10:38:41.241Z,19.80
2019-04-26T10:41:10.876Z,19.60
2019-04-26T10:43:39.614Z,19.50
2019-04-26T10:46:08.498Z,18.90
2019-04-26T10:48:37.059Z,19.20
2019-04-26T10:51:07.283Z,19.30
2019-04-26T10:53:40.389Z,19.90
2019-04-26T10:56:25.626Z,20.10
2019-04-26T10:59:01.768Z,20.30
2019-04-26T11:01:30.566Z,20.70
2019-04-26T11:03:59.077Z,20.50
2019-04-26T11:06:28.889Z,20.60
2019-04-26T11:08:57.658Z,20.30
2019-04-26T11:11:26.195Z,20.50
2019-04-26T11:13:57.409Z,20.40
2019-04-26T11:16:25.329Z,20.90
2019-04-26T11:18:57.150Z,21.20
2019-04-26T11:21:24.229Z,22.20
2019-04-26T11:23:52.809Z,22.40
2019-04-26T11:26:21.364Z,21.70
2019-04-26T11:28:51.369Z,20.90
2019-04-26T11:31:23.323Z,21.10
2019-04-26T11:33:50.676Z,21.20
2019-04-26T11:36:19.467Z,20.70
2019-04-26T11:38:48.040Z,21.50
2019-04-26T11:41:16.591Z,22.20
2019-04-26T11:43:45.160Z,22.00
2019-04-26T11:46:13.745Z,21.20
2019-04-26T11:48:42.392Z,21.70
2019-04-26T11:51:10.952Z,22.40
2019-04-26T11:53:43.156Z,22.40
2019-04-26T11:56:09.773Z,22.30
2019-04-26T11:58:38.688Z,21.90
2019-04-26T12:01:08.879Z,21.90
2019-04-26T12:03:38.229Z,21.30
2019-04-26T12:06:08.456Z,21.50
2019-04-26T12:08:50.535Z,21.80
2019-04-26T12:11:25.865Z,21.30
2019-04-26T12:13:49.392Z,21.90
2019-04-26T12:16:18.669Z,21.00
2019-04-26T12:18:48.221Z,22.70
2019-04-26T12:21:16.753Z,22.80
2019-04-26T12:23:45.292Z,22.80
2019-04-26T12:26:17.309Z,23.40
2019-04-26T12:28:44.568Z,23.20
2019-04-26T12:31:15.072Z,24.30
2019-04-26T12:33:44.864Z,23.50
2019-04-26T12:36:14.411Z,23.20
2019-04-26T12:38:43.384Z,23.40
2019-04-26T12:41:11.997Z,23.10
2019-04-26T12:43:40.739Z,23.50
2019-04-26T12:46:26.946Z,23.70
2019-04-26T12:48:52.964Z,23.80
2019-04-26T12:51:21.555Z,23.80
2019-04-26T12:53:50.145Z,23.20
2019-04-26T12:56:18.784Z,23.20
2019-04-26T12:58:50.002Z,23.10
2019-04-26T13:01:17.624Z,22.30
2019-04-26T13:03:47.803Z,23.10
2019-04-26T13:06:16.677Z,22.00
2019-04-26T13:08:47.249Z,22.10
2019-04-26T13:11:33.248Z,22.80
2019-04-26T13:14:06.060Z,21.90
2019-04-26T13:16:35.550Z,22.50
2019-04-26T13:19:04.135Z,23.30
2019-04-26T13:21:33.079Z,23.50
2019-04-26T13:24:04.459Z,23.20
2019-04-26T13:26:34.779Z,22.10
2019-04-26T13:29:03.523Z,22.80
2019-04-26T13:31:32.146Z,23.30
2019-04-26T13:34:03.033Z,23.70
2019-04-26T13:36:31.211Z,24.10
2019-04-26T13:38:59.747Z,24.40
2019-04-26T13:41:28.436Z,24.40
2019-04-26T13:43:57.185Z,24.60
2019-04-26T13:46:45.088Z,24.60
2019-04-26T13:49:18.075Z,25.30
2019-04-26T13:51:46.537Z,25.10
2019-04-26T13:54:16.454Z,25.50
2019-04-26T13:56:45.373Z,25.10
2019-04-26T13:59:13.920Z,25.30
2019-04-26T14:01:42.707Z,25.30
2019-04-26T14:04:11.305Z,25.30
2019-04-26T14:06:40.899Z,25.30
2019-04-26T14:09:11.631Z,25.60
2019-04-26T14:11:40.246Z,26.40
2019-04-26T14:14:08.818Z,25.80
2019-04-26T14:16:37.844Z,26.30
2019-04-26T14:19:06.560Z,26.50
2019-04-26T14:21:35.113Z,26.20
2019-04-26T14:24:14.111Z,26.40
2019-04-26T14:26:44.329Z,26.10
2019-04-26T14:29:12.865Z,25.80
2019-04-26T14:31:41.451Z,26.30
2019-04-26T14:34:12.044Z,26.40
2019-04-26T14:36:40.238Z,26.50
2019-04-26T14:39:10.612Z,26.10
2019-04-26T14:41:39.621Z,26.10
2019-04-26T14:44:15.719Z,26.20
2019-04-26T14:46:48.653Z,26.50
2019-04-26T14:49:09.727Z,26.70
2019-04-26T14:51:40.541Z,26.60
2019-04-26T14:54:11.545Z,26.50
2019-04-26T14:56:51.510Z,26.30
2019-04-26T14:59:10.286Z,26.40
2019-04-26T15:01:55.978Z,26.50
2019-04-26T15:04:44.308Z,26.80
2019-04-26T15:07:12.917Z,27.00
2019-04-26T15:09:42.889Z,26.60
2019-04-26T15:12:14.728Z,25.90
2019-04-26T15:14:42.289Z,25.90
2019-04-26T15:17:12.466Z,26.10
2019-04-26T15:19:45.824Z,25.60
2019-04-26T15:22:12.188Z,25.80
2019-04-26T15:24:42.197Z,25.10
2019-04-26T15:27:11.024Z,25.10
2019-04-26T15:29:39.623Z,25.20
2019-04-26T15:32:08.248Z,24.60
2019-04-26T15:34:36.810Z,24.50
2019-04-26T15:37:05.788Z,24.10
2019-04-26T15:39:35.997Z,24.40
2019-04-26T15:42:18.160Z,24.30
2019-04-26T15:45:06.165Z,25.00
2019-04-26T15:47:38.966Z,25.00
2019-04-26T15:50:10.109Z,25.20
2019-04-26T15:52:39.677Z,25.60
2019-04-26T15:55:08.836Z,26.00
2019-04-26T15:57:37.408Z,25.70
2019-04-26T16:00:07.954Z,25.60
2019-04-26T16:02:36.487Z,25.60
2019-04-26T16:05:07.064Z,25.80
2019-04-26T16:07:35.648Z,26.30
2019-04-26T16:10:06.725Z,26.40
2019-04-26T16:12:35.289Z,26.40
2019-04-26T16:15:06.569Z,26.60
2019-04-26T16:17:36.321Z,26.90
2019-04-26T16:20:07.680Z,26.80
2019-04-26T16:22:36.212Z,27.10
2019-04-26T16:25:06.710Z,27.20
2019-04-26T16:27:35.205Z,27.40
2019-04-26T16:30:10.578Z,27.70
2019-04-26T16:32:58.677Z,27.70
2019-04-26T16:35:28.056Z,27.80
2019-04-26T16:37:53.691Z,27.70
2019-04-26T16:40:23.935Z,28.00
2019-04-26T16:45:23.771Z,28.50
2019-04-26T16:47:53.213Z,28.80
2019-04-26T16:50:31.182Z,29.10
2019-04-26T16:52:52.905Z,29.10
2019-04-26T16:55:24.226Z,29.40
2019-04-26T16:57:55.614Z,29.70
2019-04-26T17:00:31.849Z,29.80
2019-04-26T17:00:45.481Z,28.10
2019-04-26T17:02:52.747Z,29.90
2019-04-26T17:05:44.058Z,30.10
2019-04-26T17:07:53.940Z,30.30
2019-04-26T17:10:24.698Z,30.50
2019-04-26T17:12:54.388Z,30.90
2019-04-26T17:15:24.267Z,31.20
2019-04-26T17:17:54.109Z,31.50
2019-04-26T17:20:22.740Z,32.00
2019-04-26T17:22:59.410Z,32.10
2019-04-26T17:25:36.690Z,32.50
2019-04-26T17:28:05.637Z,32.80
2019-04-26T17:30:40.814Z,33.20
2019-04-26T17:33:05.078Z,33.50
2019-04-26T17:35:36.736Z,33.70
2019-04-26T17:38:05.161Z,33.90
2019-04-26T17:40:36.475Z,34.30
2019-04-26T17:43:05.337Z,34.40
2019-04-26T17:45:36.256Z,34.60
2019-04-26T17:48:06.702Z,34.80
2019-04-26T17:50:38.991Z,35.10
2019-04-26T17:53:06.555Z,35.30
2019-04-26T17:55:36.719Z,35.70
2019-04-26T17:58:12.013Z,36.10
2019-04-26T18:00:45.941Z,36.20
2019-04-26T18:03:11.678Z,36.50
2019-04-26T18:05:55.962Z,37.00
2019-04-26T18:08:31.307Z,37.30
2019-04-26T18:10:41.342Z,38.00
2019-04-26T18:13:15.544Z,38.50
2019-04-26T18:15:47.002Z,38.80
2019-04-26T18:18:17.585Z,39.50
2019-04-26T18:21:05.026Z,39.90
2019-04-26T18:23:33.917Z,40.50
2019-04-26T18:26:03.246Z,40.80
2019-04-26T18:28:33.654Z,41.30
2019-04-26T18:31:03.622Z,41.30
2019-04-26T18:33:32.893Z,41.90
2019-04-26T18:36:01.927Z,42.10
2019-04-26T18:38:30.560Z,42.10
2019-04-26T18:41:01.386Z,42.30
2019-04-26T18:43:29.327Z,43.40
2019-04-26T18:46:03.340Z,43.60
2019-04-26T18:48:35.211Z,43.60
2019-04-26T18:51:00.698Z,44.00
2019-04-26T18:53:39.559Z,44.70
2019-04-26T18:56:10.288Z,45.10
2019-04-26T18:58:38.932Z,45.30
2019-04-26T19:01:09.293Z,45.60
2019-04-26T19:03:37.835Z,45.90
2019-04-26T19:06:06.435Z,46.00
2019-04-26T19:08:45.550Z,46.20
2019-04-26T19:11:07.538Z,46.50
2019-04-26T19:13:56.358Z,46.80
2019-04-26T19:16:35.562Z,47.00
2019-04-26T19:19:08.635Z,47.20
2019-04-26T19:21:50.613Z,47.40
2019-04-26T19:24:20.935Z,47.60
2019-04-26T19:26:50.039Z,47.90
2019-04-26T19:29:22.466Z,48.20
2019-04-26T19:31:48.569Z,48.50
2019-04-26T19:34:17.891Z,49.20
2019-04-26T19:36:46.662Z,49.10
2019-04-26T19:39:15.240Z,49.30
2019-04-26T19:41:43.740Z,49.60
2019-04-26T19:44:14.603Z,49.80
2019-04-26T19:46:53.659Z,50.00
2019-04-26T19:49:36.819Z,50.20
2019-04-26T19:52:07.276Z,50.50
2019-04-26T19:54:46.204Z,50.60
2019-04-26T19:57:23.806Z,51.00
2019-04-26T19:59:52.704Z,50.90
2019-04-26T20:02:21.516Z,50.90
2019-04-26T20:04:51.361Z,50.90
2019-04-26T20:07:20.131Z,50.90
2019-04-26T20:09:48.604Z,50.90
2019-04-26T20:12:17.210Z,51.00
2019-04-26T20:14:50.649Z,50.90
2019-04-26T20:17:19.883Z,51.10
2019-04-26T20:19:47.626Z,50.90
2019-04-26T20:22:22.188Z,51.00
2019-04-26T20:24:48.672Z,51.10
2019-04-26T20:27:20.674Z,51.10
2019-04-26T20:29:49.362Z,51.30
2019-04-26T20:32:23.912Z,51.50
2019-04-26T20:35:02.396Z,51.70
2019-04-26T20:37:32.190Z,51.80
2019-04-26T20:40:17.669Z,52.10
2019-04-26T20:42:31.623Z,52.20
2019-04-26T20:45:04.327Z,52.50
2019-04-26T20:47:32.060Z,52.70
2019-04-26T20:50:02.875Z,53.00
2019-04-26T20:52:32.160Z,53.10
2019-04-26T20:55:00.775Z,53.40
2019-04-26T20:57:32.969Z,53.50
2019-04-26T21:00:03.271Z,53.70
2019-04-26T21:02:29.976Z,53.60
2019-04-26T21:04:58.519Z,53.70
2019-04-26T21:07:27.029Z,53.70
2019-04-26T21:09:55.494Z,53.80
2019-04-26T21:12:24.560Z,53.90
2019-04-26T21:14:53.569Z,54.10
2019-04-26T21:17:24.262Z,54.10
2019-04-26T21:19:54.992Z,54.30
2019-04-26T21:22:28.402Z,54.30
2019-04-26T21:24:58.456Z,54.50
2019-04-26T21:27:29.764Z,54.60
2019-04-26T21:30:03.412Z,54.70
2019-04-26T21:32:40.691Z,54.70
2019-04-26T21:35:11.136Z,54.60
2019-04-26T21:37:43.028Z,54.70
2019-04-26T21:40:16.900Z,54.60
2019-04-26T21:42:45.203Z,54.60
2019-04-26T21:45:14.265Z,54.90
2019-04-26T21:47:43.478Z,55.00
2019-04-26T21:50:13.557Z,54.90
2019-04-26T21:52:43.307Z,55.00
2019-04-26T21:55:12.884Z,55.00
2019-04-26T21:57:41.354Z,54.90
2019-04-26T22:00:15.187Z,54.90
2019-04-26T22:02:44.248Z,54.70
2019-04-26T22:05:15.062Z,54.60
2019-04-26T22:07:47.444Z,54.40
2019-04-26T22:10:16.415Z,54.40
2019-04-26T22:12:45.032Z,54.00
2019-04-26T22:15:23.450Z,53.70
2019-04-26T22:17:54.599Z,53.70
2019-04-26T22:20:24.867Z,53.40
2019-04-26T22:23:04.569Z,53.30
2019-04-26T22:25:34.886Z,53.20
2019-04-26T22:28:03.537Z,53.20
2019-04-26T22:30:33.172Z,53.20
2019-04-26T22:33:03.081Z,53.00
2019-04-26T22:35:31.932Z,52.90
2019-04-26T22:38:00.474Z,52.70
2019-04-26T22:40:29.115Z,52.80
2019-04-26T22:42:59.324Z,52.90
2019-04-26T22:45:44.134Z,52.90
2019-04-26T22:48:19.423Z,53.00
2019-04-26T22:50:45.329Z,53.00
2019-04-26T22:53:13.895Z,53.00
2019-04-26T22:55:43.602Z,53.10
2019-04-26T22:58:13.415Z,53.20
2019-04-26T23:00:43.583Z,53.30
2019-04-26T23:03:13.780Z,53.20
2019-04-26T23:05:43.284Z,53.30
2019-04-26T23:08:13.589Z,53.50
2019-04-26T23:10:44.007Z,53.40
2019-04-26T23:13:20.115Z,53.30
2019-04-26T23:15:52.800Z,53.50
2019-04-26T23:18:42.899Z,53.40
2019-04-26T23:21:11.922Z,53.90
2019-04-26T23:23:41.094Z,53.40
2019-04-26T23:26:12.695Z,53.30
2019-04-26T23:28:41.306Z,53.40
2019-04-26T23:31:10.203Z,53.30
2019-04-26T23:33:38.736Z,53.50
2019-04-26T23:36:07.271Z,53.60
2019-04-26T23:38:37.383Z,53.80
2019-04-26T23:41:07.388Z,54.00
2019-04-26T23:43:36.219Z,54.00
2019-04-26T23:46:04.785Z,53.80
2019-04-26T23:48:33.391Z,53.80
2019-04-26T23:51:04.948Z,53.70
2019-04-26T23:53:33.643Z,53.80
2019-04-26T23:56:02.377Z,53.70
2019-04-26T23:58:30.922Z,53.70
